createdAt,value
2019-01-06T00:00:56.660Z,1006.1
2019-01-06T00:01:58.125Z,1006.2
2019-01-06T00:02:59.474Z,1006.1
2019-01-06T00:04:00.846Z,1006.2
2019-01-06T00:05:02.254Z,1006.1
2019-01-06T00:06:03.632Z,1006.1
2019-01-06T00:07:05.003Z,1006.1
2019-01-06T00:08:06.383Z,1006.1
2019-01-06T00:09:07.756Z,1006.1
2019-01-06T00:10:09.161Z,1006.1
2019-01-06T00:11:10.527Z,1006.1
2019-01-06T00:12:11.904Z,1006.1
2019-01-06T00:13:13.274Z,1006.1
2019-01-06T00:14:14.640Z,1006.1
2019-01-06T00:15:16.155Z,1006.1
2019-01-06T00:16:17.517Z,1006.1
2019-01-06T00:17:18.883Z,1006.1
2019-01-06T00:18:20.260Z,1006.1
2019-01-06T00:19:21.625Z,1006.1
2019-01-06T00:20:22.990Z,1006.1
2019-01-06T00:21:24.368Z,1006.1
2019-01-06T00:22:25.926Z,1006.1
2019-01-06T00:23:27.349Z,1006.1
2019-01-06T00:24:28.713Z,1006.1
2019-01-06T00:25:30.083Z,1006.1
2019-01-06T00:26:31.449Z,1006.1
2019-01-06T00:27:32.816Z,1006.1
2019-01-06T00:28:34.195Z,1006.2
2019-01-06T00:29:35.678Z,1006.1
2019-01-06T00:30:37.029Z,1006.2
2019-01-06T00:31:38.396Z,1006.2
2019-01-06T00:32:39.808Z,1006.2
2019-01-06T00:33:41.238Z,1006.2
2019-01-06T00:34:42.620Z,1006.2
2019-01-06T00:35:43.998Z,1006.2
2019-01-06T00:36:45.414Z,1006.2
2019-01-06T00:37:46.786Z,1006.2
2019-01-06T00:38:48.175Z,1006.2
2019-01-06T00:39:49.542Z,1006.3
2019-01-06T00:40:50.907Z,1006.3
2019-01-06T00:41:52.275Z,1006.3
2019-01-06T00:42:53.654Z,1006.3
2019-01-06T00:43:55.043Z,1006.3
2019-01-06T00:44:56.475Z,1006.3
2019-01-06T00:45:58.546Z,1006.3
2019-01-06T00:46:59.908Z,1006.3
2019-01-06T00:48:01.297Z,1006.3
2019-01-06T00:49:02.699Z,1006.3
2019-01-06T00:50:04.102Z,1006.3
2019-01-06T00:51:05.475Z,1006.3
2019-01-06T00:52:06.856Z,1006.3
2019-01-06T00:53:08.222Z,1006.3
2019-01-06T00:54:09.591Z,1006.3
2019-01-06T00:55:11.012Z,1006.3
2019-01-06T00:56:12.380Z,1006.3
2019-01-06T00:57:13.755Z,1006.3
2019-01-06T00:58:15.147Z,1006.3
2019-01-06T00:59:16.519Z,1006.3
2019-01-06T01:00:17.887Z,1006.3
2019-01-06T01:01:19.255Z,1006.3
2019-01-06T01:02:20.622Z,1006.4
2019-01-06T01:03:21.990Z,1006.3
2019-01-06T01:04:23.365Z,1006.4
2019-01-06T01:05:24.731Z,1006.3
2019-01-06T01:06:26.168Z,1006.4
2019-01-06T01:07:27.492Z,1006.3
2019-01-06T01:08:28.865Z,1006.3
2019-01-06T01:09:30.234Z,1006.3
2019-01-06T01:10:31.674Z,1006.3
2019-01-06T01:11:33.032Z,1006.3
2019-01-06T01:12:34.395Z,1006.3
2019-01-06T01:13:35.767Z,1006.3
2019-01-06T01:14:37.146Z,1006.3
2019-01-06T01:15:38.592Z,1006.3
2019-01-06T01:16:39.948Z,1006.3
2019-01-06T01:17:41.337Z,1006.3
2019-01-06T01:18:42.910Z,1006.3
2019-01-06T01:19:44.426Z,1006.3
2019-01-06T01:20:45.891Z,1006.3
2019-01-06T01:21:47.254Z,1006.3
2019-01-06T01:22:48.632Z,1006.3
2019-01-06T01:23:50.044Z,1006.3
2019-01-06T01:24:51.457Z,1006.3
2019-01-06T01:25:52.826Z,1006.4
2019-01-06T01:26:54.199Z,1006.4
2019-01-06T01:27:55.570Z,1006.4
2019-01-06T01:28:56.975Z,1006.3
2019-01-06T01:29:58.418Z,1006.4
2019-01-06T01:30:59.844Z,1006.4
2019-01-06T01:32:01.425Z,1006.4
2019-01-06T01:33:03.028Z,1006.4
2019-01-06T01:34:04.677Z,1006.4
2019-01-06T01:35:06.396Z,1006.4
2019-01-06T01:36:07.798Z,1006.4
2019-01-06T01:37:09.351Z,1006.4
2019-01-06T01:38:11.990Z,1006.4
2019-01-06T01:39:13.332Z,1006.4
2019-01-06T01:40:14.829Z,1006.4
2019-01-06T01:41:16.264Z,1006.4
2019-01-06T01:42:17.809Z,1006.5
2019-01-06T01:43:19.189Z,1006.4
2019-01-06T01:44:20.564Z,1006.4
2019-01-06T01:45:21.941Z,1006.4
2019-01-06T01:46:23.308Z,1006.4
2019-01-06T01:47:24.829Z,1006.4
2019-01-06T01:48:26.198Z,1006.4
2019-01-06T01:49:27.557Z,1006.4
2019-01-06T01:50:28.939Z,1006.4
2019-01-06T01:51:30.295Z,1006.5
2019-01-06T01:52:32.071Z,1006.5
2019-01-06T01:53:33.415Z,1006.5
2019-01-06T01:54:34.773Z,1006.5
2019-01-06T01:55:36.153Z,1006.5
2019-01-06T01:56:37.518Z,1006.5
2019-01-06T01:57:38.894Z,1006.5
2019-01-06T01:58:40.262Z,1006.5
2019-01-06T01:59:41.630Z,1006.6
2019-01-06T02:00:43.002Z,1006.6
2019-01-06T02:01:44.366Z,1006.5
2019-01-06T02:02:45.740Z,1006.5
2019-01-06T02:03:47.097Z,1006.5
2019-01-06T02:04:48.461Z,1006.5
2019-01-06T02:05:49.831Z,1006.5
2019-01-06T02:06:51.201Z,1006.5
2019-01-06T02:07:52.570Z,1006.5
2019-01-06T02:08:53.937Z,1006.5
2019-01-06T02:09:55.367Z,1006.5
2019-01-06T02:10:56.742Z,1006.5
2019-01-06T02:11:58.115Z,1006.4
2019-01-06T02:12:59.475Z,1006.4
2019-01-06T02:14:00.874Z,1006.5
2019-01-06T02:15:02.232Z,1006.5
2019-01-06T02:16:03.660Z,1006.5
2019-01-06T02:17:05.084Z,1006.5
2019-01-06T02:18:06.487Z,1006.5
2019-01-06T02:19:07.853Z,1006.4
2019-01-06T02:20:09.237Z,1006.5
2019-01-06T02:21:10.607Z,1006.5
2019-01-06T02:22:11.976Z,1006.4
2019-01-06T02:23:13.354Z,1006.4
2019-01-06T02:24:14.724Z,1006.5
2019-01-06T02:25:16.136Z,1006.5
2019-01-06T02:26:17.465Z,1006.4
2019-01-06T02:27:18.835Z,1006.5
2019-01-06T02:28:20.243Z,1006.5
2019-01-06T02:29:21.648Z,1006.5
2019-01-06T02:30:23.028Z,1006.5
2019-01-06T02:31:24.405Z,1006.5
2019-01-06T02:32:25.775Z,1006.5
2019-01-06T02:33:27.141Z,1006.5
2019-01-06T02:34:28.501Z,1006.5
2019-01-06T02:35:29.874Z,1006.5
2019-01-06T02:36:31.257Z,1006.5
2019-01-06T02:37:32.632Z,1006.5
2019-01-06T02:38:33.998Z,1006.5
2019-01-06T02:39:35.362Z,1006.6
2019-01-06T02:40:36.737Z,1006.6
2019-01-06T02:41:38.122Z,1006.6
2019-01-06T02:42:39.458Z,1006.6
2019-01-06T02:43:40.862Z,1006.6
2019-01-06T02:44:42.233Z,1006.6
2019-01-06T02:45:43.824Z,1006.6
2019-01-06T02:46:45.197Z,1006.5
2019-01-06T02:47:46.600Z,1006.5
2019-01-06T02:48:47.979Z,1006.5
2019-01-06T02:49:49.355Z,1006.5
2019-01-06T02:50:50.738Z,1006.5
2019-01-06T02:51:52.104Z,1006.5
2019-01-06T02:52:54.288Z,1006.5
2019-01-06T02:53:55.662Z,1006.5
2019-01-06T02:54:57.038Z,1006.5
2019-01-06T02:55:58.430Z,1006.5
2019-01-06T02:56:59.804Z,1006.5
2019-01-06T02:58:01.177Z,1006.5
2019-01-06T02:59:02.753Z,1006.5
2019-01-06T03:00:04.126Z,1006.5
2019-01-06T03:01:05.509Z,1006.5
2019-01-06T03:02:06.862Z,1006.5
2019-01-06T03:03:08.230Z,1006.5
2019-01-06T03:04:09.597Z,1006.5
2019-01-06T03:05:11.188Z,1006.5
2019-01-06T03:06:12.542Z,1006.5
2019-01-06T03:07:13.914Z,1006.5
2019-01-06T03:08:15.279Z,1006.4
2019-01-06T03:09:16.649Z,1006.4
2019-01-06T03:10:18.017Z,1006.4
2019-01-06T03:11:19.383Z,1006.4
2019-01-06T03:12:20.798Z,1006.4
2019-01-06T03:13:22.171Z,1006.4
2019-01-06T03:14:23.537Z,1006.4
2019-01-06T03:15:24.909Z,1006.4
2019-01-06T03:16:26.305Z,1006.4
2019-01-06T03:17:27.670Z,1006.4
2019-01-06T03:18:29.041Z,1006.4
2019-01-06T03:19:30.446Z,1006.3
2019-01-06T03:20:31.802Z,1006.3
2019-01-06T03:21:33.184Z,1006.3
2019-01-06T03:22:34.553Z,1006.3
2019-01-06T03:23:35.912Z,1006.3
2019-01-06T03:24:37.289Z,1006.3
2019-01-06T03:25:38.661Z,1006.2
2019-01-06T03:26:40.043Z,1006.3
2019-01-06T03:27:41.424Z,1006.3
2019-01-06T03:28:42.791Z,1006.3
2019-01-06T03:29:44.159Z,1006.3
2019-01-06T03:30:45.526Z,1006.3
2019-01-06T03:31:46.902Z,1006.3
2019-01-06T03:32:48.247Z,1006.3
2019-01-06T03:33:49.614Z,1006.2
2019-01-06T03:34:51.001Z,1006.2
2019-01-06T03:35:52.375Z,1006.2
2019-01-06T03:36:53.790Z,1006.1
2019-01-06T03:37:55.164Z,1006.2
2019-01-06T03:38:56.536Z,1006.2
2019-01-06T03:39:57.904Z,1006.2
2019-01-06T03:40:59.256Z,1006.2
2019-01-06T03:42:00.632Z,1006.2
2019-01-06T03:43:02.010Z,1006.2
2019-01-06T03:44:03.364Z,1006.2
2019-01-06T03:45:04.735Z,1006.2
2019-01-06T03:46:06.106Z,1006.2
2019-01-06T03:47:07.536Z,1006.2
2019-01-06T03:48:08.917Z,1006.2
2019-01-06T03:49:10.299Z,1006.2
2019-01-06T03:50:11.707Z,1006.2
2019-01-06T03:51:13.073Z,1006.2
2019-01-06T03:52:14.430Z,1006.2
2019-01-06T03:53:15.796Z,1006.2
2019-01-06T03:54:17.178Z,1006.2
2019-01-06T03:55:18.578Z,1006.2
2019-01-06T03:56:19.950Z,1006.2
2019-01-06T03:57:21.332Z,1006.2
2019-01-06T03:58:22.696Z,1006.2
2019-01-06T03:59:24.068Z,1006.3
2019-01-06T04:00:25.430Z,1006.2
2019-01-06T04:01:26.816Z,1006.2
2019-01-06T04:02:28.209Z,1006.2
2019-01-06T04:03:29.589Z,1006.2
2019-01-06T04:04:30.961Z,1006.2
2019-01-06T04:05:32.323Z,1006.2
2019-01-06T04:06:33.689Z,1006.2
2019-01-06T04:07:35.054Z,1006.2
2019-01-06T04:08:36.433Z,1006.2
2019-01-06T04:09:37.833Z,1006.3
2019-01-06T04:10:39.187Z,1006.2
2019-01-06T04:11:40.563Z,1006.3
2019-01-06T04:12:41.935Z,1006.3
2019-01-06T04:13:43.305Z,1006.2
2019-01-06T04:14:44.677Z,1006.3
2019-01-06T04:15:46.041Z,1006.2
2019-01-06T04:16:47.425Z,1006.3
2019-01-06T04:17:48.790Z,1006.2
2019-01-06T04:18:50.163Z,1006.3
2019-01-06T04:19:51.565Z,1006.3
2019-01-06T04:20:52.952Z,1006.3
2019-01-06T04:21:54.330Z,1006.3
2019-01-06T04:22:55.705Z,1006.2
2019-01-06T04:23:57.068Z,1006.3
2019-01-06T04:24:58.446Z,1006.2
2019-01-06T04:25:59.837Z,1006.2
2019-01-06T04:27:01.264Z,1006.3
2019-01-06T04:28:02.632Z,1006.2
2019-01-06T04:29:04.049Z,1006.2
2019-01-06T04:30:05.414Z,1006.3
2019-01-06T04:31:06.790Z,1006.2
2019-01-06T04:32:08.159Z,1006.2
2019-01-06T04:33:09.533Z,1006.2
2019-01-06T04:34:10.898Z,1006.2
2019-01-06T04:35:12.262Z,1006.2
2019-01-06T04:36:13.642Z,1006.2
2019-01-06T04:37:15.015Z,1006.2
2019-01-06T04:38:16.376Z,1006.2
2019-01-06T04:39:17.769Z,1006.1
2019-01-06T04:40:19.134Z,1006.1
2019-01-06T04:41:20.506Z,1006.1
2019-01-06T04:42:21.902Z,1006.1
2019-01-06T04:43:23.262Z,1006.2
2019-01-06T04:44:24.640Z,1006.2
2019-01-06T04:45:26.000Z,1006.1
2019-01-06T04:46:27.379Z,1006.2
2019-01-06T04:47:28.751Z,1006.2
2019-01-06T04:48:30.109Z,1006.2
2019-01-06T04:49:31.479Z,1006.1
2019-01-06T04:50:32.847Z,1006.1
2019-01-06T04:51:34.219Z,1006.2
2019-01-06T04:52:35.587Z,1006.2
2019-01-06T04:53:36.967Z,1006.3
2019-01-06T04:54:38.336Z,1006.2
2019-01-06T04:55:39.699Z,1006.2
2019-01-06T04:56:41.070Z,1006.2
2019-01-06T04:57:42.429Z,1006.2
2019-01-06T04:58:43.809Z,1006.2
2019-01-06T04:59:45.170Z,1006.2
2019-01-06T05:00:46.541Z,1006.2
2019-01-06T05:01:47.927Z,1006.2
2019-01-06T05:02:49.289Z,1006.2
2019-01-06T05:03:50.662Z,1006.3
2019-01-06T05:04:52.024Z,1006.3
2019-01-06T05:05:53.390Z,1006.2
2019-01-06T05:06:54.759Z,1006.3
2019-01-06T05:07:56.124Z,1006.3
2019-01-06T05:08:57.491Z,1006.3
2019-01-06T05:09:58.865Z,1006.3
2019-01-06T05:11:00.227Z,1006.3
2019-01-06T05:12:01.596Z,1006.3
2019-01-06T05:13:02.972Z,1006.3
2019-01-06T05:14:04.335Z,1006.3
2019-01-06T05:15:05.715Z,1006.3
2019-01-06T05:16:07.067Z,1006.3
2019-01-06T05:17:08.430Z,1006.3
2019-01-06T05:18:09.795Z,1006.3
2019-01-06T05:19:11.166Z,1006.3
2019-01-06T05:20:12.527Z,1006.3
2019-01-06T05:21:13.916Z,1006.3
2019-01-06T05:22:15.292Z,1006.3
2019-01-06T05:23:16.659Z,1006.3
2019-01-06T05:24:18.029Z,1006.3
2019-01-06T05:25:19.445Z,1006.3
2019-01-06T05:26:20.765Z,1006.3
2019-01-06T05:27:22.132Z,1006.3
2019-01-06T05:28:23.494Z,1006.3
2019-01-06T05:29:24.864Z,1006.3
2019-01-06T05:30:26.238Z,1006.3
2019-01-06T05:31:27.614Z,1006.3
2019-01-06T05:32:28.976Z,1006.3
2019-01-06T05:33:30.345Z,1006.3
2019-01-06T05:34:31.714Z,1006.3
2019-01-06T05:35:33.093Z,1006.3
2019-01-06T05:36:34.455Z,1006.3
2019-01-06T05:37:35.819Z,1006.2
2019-01-06T05:38:37.205Z,1006.3
2019-01-06T05:39:38.579Z,1006.2
2019-01-06T05:40:39.953Z,1006.2
2019-01-06T05:41:41.323Z,1006.2
2019-01-06T05:42:42.790Z,1006.2
2019-01-06T05:43:44.132Z,1006.2
2019-01-06T05:44:45.559Z,1006.2
2019-01-06T05:45:46.914Z,1006.1
2019-01-06T05:46:48.309Z,1006.1
2019-01-06T05:47:49.664Z,1006.1
2019-01-06T05:48:51.035Z,1006.1
2019-01-06T05:49:52.407Z,1006.1
2019-01-06T05:50:53.770Z,1006.1
2019-01-06T05:51:55.146Z,1006.1
2019-01-06T05:52:56.509Z,1006.1
2019-01-06T05:53:57.881Z,1006.1
2019-01-06T05:54:59.248Z,1006.2
2019-01-06T05:56:00.659Z,1006.2
2019-01-06T05:57:02.027Z,1006.2
2019-01-06T05:58:03.398Z,1006.2
2019-01-06T05:59:04.760Z,1006.2
2019-01-06T06:00:06.131Z,1006.2
2019-01-06T06:01:07.491Z,1006.2
2019-01-06T06:02:08.862Z,1006.3
2019-01-06T06:03:10.246Z,1006.3
2019-01-06T06:04:11.610Z,1006.3
2019-01-06T06:05:12.975Z,1006.3
2019-01-06T06:06:14.344Z,1006.3
2019-01-06T06:07:15.719Z,1006.3
2019-01-06T06:08:17.077Z,1006.3
2019-01-06T06:09:18.445Z,1006.3
2019-01-06T06:10:19.813Z,1006.3
2019-01-06T06:11:21.189Z,1006.3
2019-01-06T06:12:22.586Z,1006.3
2019-01-06T06:13:23.943Z,1006.4
2019-01-06T06:14:25.320Z,1006.4
2019-01-06T06:15:26.686Z,1006.4
2019-01-06T06:16:28.058Z,1006.4
2019-01-06T06:17:29.424Z,1006.4
2019-01-06T06:18:30.781Z,1006.4
2019-01-06T06:19:32.161Z,1006.4
2019-01-06T06:20:33.524Z,1006.4
2019-01-06T06:21:34.888Z,1006.4
2019-01-06T06:22:36.286Z,1006.4
2019-01-06T06:23:37.662Z,1006.4
2019-01-06T06:24:39.024Z,1006.4
2019-01-06T06:25:40.395Z,1006.4
2019-01-06T06:26:41.806Z,1006.5
2019-01-06T06:27:43.183Z,1006.5
2019-01-06T06:28:44.546Z,1006.5
2019-01-06T06:29:45.919Z,1006.4
2019-01-06T06:30:47.342Z,1006.5
2019-01-06T06:31:48.701Z,1006.4
2019-01-06T06:32:50.079Z,1006.5
2019-01-06T06:33:51.449Z,1006.5
2019-01-06T06:34:52.820Z,1006.5
2019-01-06T06:35:54.189Z,1006.5
2019-01-06T06:36:55.558Z,1006.6
2019-01-06T06:37:56.925Z,1006.5
2019-01-06T06:38:58.370Z,1006.6
2019-01-06T06:39:59.739Z,1006.6
2019-01-06T06:41:01.109Z,1006.6
2019-01-06T06:42:02.471Z,1006.6
2019-01-06T06:43:03.841Z,1006.6
2019-01-06T06:44:05.206Z,1006.6
2019-01-06T06:45:06.574Z,1006.6
2019-01-06T06:46:07.967Z,1006.6
2019-01-06T06:47:09.315Z,1006.6
2019-01-06T06:48:10.681Z,1006.6
2019-01-06T06:49:12.049Z,1006.7
2019-01-06T06:50:13.487Z,1006.6
2019-01-06T06:51:14.858Z,1006.7
2019-01-06T06:52:16.223Z,1006.6
2019-01-06T06:53:17.590Z,1006.7
2019-01-06T06:54:18.958Z,1006.7
2019-01-06T06:55:20.319Z,1006.6
2019-01-06T06:56:21.691Z,1006.7
2019-01-06T06:57:23.057Z,1006.7
2019-01-06T06:58:24.422Z,1006.7
2019-01-06T06:59:25.785Z,1006.7
2019-01-06T07:00:27.177Z,1006.7
2019-01-06T07:01:28.543Z,1006.8
2019-01-06T07:02:29.959Z,1006.8
2019-01-06T07:03:31.354Z,1006.8
2019-01-06T07:04:32.730Z,1006.8
2019-01-06T07:05:34.099Z,1006.8
2019-01-06T07:06:35.461Z,1006.9
2019-01-06T07:07:36.818Z,1006.9
2019-01-06T07:08:38.194Z,1006.9
2019-01-06T07:09:39.560Z,1006.9
2019-01-06T07:10:40.978Z,1006.9
2019-01-06T07:11:42.322Z,1006.9
2019-01-06T07:12:43.693Z,1007.0
2019-01-06T07:13:45.056Z,1007.0
2019-01-06T07:14:46.422Z,1007.0
2019-01-06T07:15:47.789Z,1007.0
2019-01-06T07:16:49.157Z,1007.0
2019-01-06T07:17:50.560Z,1007.0
2019-01-06T07:18:51.922Z,1007.0
2019-01-06T07:19:53.293Z,1007.0
2019-01-06T07:20:54.662Z,1007.0
2019-01-06T07:21:56.030Z,1007.0
2019-01-06T07:22:57.396Z,1007.0
2019-01-06T07:23:58.770Z,1007.0
2019-01-06T07:25:00.218Z,1007.1
2019-01-06T07:26:01.472Z,1007.0
2019-01-06T07:27:02.842Z,1007.0
2019-01-06T07:28:04.205Z,1007.1
2019-01-06T07:29:05.581Z,1007.0
2019-01-06T07:30:06.944Z,1007.1
2019-01-06T07:31:08.315Z,1007.1
2019-01-06T07:32:09.673Z,1007.1
2019-01-06T07:33:11.106Z,1007.1
2019-01-06T07:34:12.476Z,1007.1
2019-01-06T07:35:13.836Z,1007.0
2019-01-06T07:36:15.203Z,1007.1
2019-01-06T07:37:16.573Z,1007.1
2019-01-06T07:38:17.938Z,1007.2
2019-01-06T07:39:19.307Z,1007.1
2019-01-06T07:40:20.690Z,1007.2
2019-01-06T07:41:22.067Z,1007.2
2019-01-06T07:42:23.429Z,1007.2
2019-01-06T07:43:24.800Z,1007.2
2019-01-06T07:44:26.170Z,1007.2
2019-01-06T07:45:27.532Z,1007.2
2019-01-06T07:46:28.897Z,1007.2
2019-01-06T07:47:30.262Z,1007.2
2019-01-06T07:48:31.642Z,1007.2
2019-01-06T07:49:33.009Z,1007.2
2019-01-06T07:50:34.378Z,1007.2
2019-01-06T07:51:35.740Z,1007.2
2019-01-06T07:52:37.132Z,1007.2
2019-01-06T07:53:38.503Z,1007.2
2019-01-06T07:54:39.894Z,1007.2
2019-01-06T07:55:41.226Z,1007.3
2019-01-06T07:56:42.607Z,1007.2
2019-01-06T07:57:43.975Z,1007.2
2019-01-06T07:58:45.352Z,1007.2
2019-01-06T07:59:46.708Z,1007.3
2019-01-06T08:00:48.089Z,1007.3
2019-01-06T08:01:49.452Z,1007.3
2019-01-06T08:02:50.818Z,1007.3
2019-01-06T08:03:52.186Z,1007.3
2019-01-06T08:04:53.550Z,1007.3
2019-01-06T08:05:54.915Z,1007.3
2019-01-06T08:06:56.285Z,1007.3
2019-01-06T08:07:57.654Z,1007.3
2019-01-06T08:08:59.033Z,1007.3
2019-01-06T08:10:00.401Z,1007.4
2019-01-06T08:11:01.766Z,1007.3
2019-01-06T08:12:03.135Z,1007.3
2019-01-06T08:13:04.496Z,1007.4
2019-01-06T08:14:05.868Z,1007.4
2019-01-06T08:15:07.233Z,1007.4
2019-01-06T08:16:08.598Z,1007.4
2019-01-06T08:17:09.970Z,1007.4
2019-01-06T08:18:11.342Z,1007.4
2019-01-06T08:19:12.731Z,1007.4
2019-01-06T08:20:14.091Z,1007.4
2019-01-06T08:21:15.462Z,1007.4
2019-01-06T08:22:16.829Z,1007.5
2019-01-06T08:23:18.193Z,1007.5
2019-01-06T08:24:19.560Z,1007.4
2019-01-06T08:25:20.926Z,1007.5
2019-01-06T08:26:22.286Z,1007.5
2019-01-06T08:27:23.658Z,1007.5
2019-01-06T08:28:25.034Z,1007.5
2019-01-06T08:29:26.394Z,1007.5
2019-01-06T08:30:27.753Z,1007.5
2019-01-06T08:31:29.126Z,1007.6
2019-01-06T08:32:30.491Z,1007.5
2019-01-06T08:33:31.859Z,1007.6
2019-01-06T08:34:33.222Z,1007.6
2019-01-06T08:35:34.605Z,1007.5
2019-01-06T08:36:35.972Z,1007.6
2019-01-06T08:37:37.361Z,1007.6
2019-01-06T08:38:38.731Z,1007.6
2019-01-06T08:39:40.091Z,1007.6
2019-01-06T08:40:41.473Z,1007.6
2019-01-06T08:41:42.834Z,1007.7
2019-01-06T08:42:44.195Z,1007.6
2019-01-06T08:43:45.598Z,1007.6
2019-01-06T08:44:46.971Z,1007.6
2019-01-06T08:45:48.336Z,1007.6
2019-01-06T08:46:49.738Z,1007.6
2019-01-06T08:47:51.100Z,1007.6
2019-01-06T08:48:52.474Z,1007.6
2019-01-06T08:49:53.845Z,1007.7
2019-01-06T08:50:55.240Z,1007.7
2019-01-06T08:51:56.632Z,1007.6
2019-01-06T08:52:57.995Z,1007.7
2019-01-06T08:53:59.370Z,1007.7
2019-01-06T08:55:00.731Z,1007.7
2019-01-06T08:56:02.101Z,1007.7
2019-01-06T08:57:03.476Z,1007.7
2019-01-06T08:58:04.864Z,1007.7
2019-01-06T08:59:06.231Z,1007.7
2019-01-06T09:00:07.595Z,1007.7
2019-01-06T09:01:08.964Z,1007.7
2019-01-06T09:02:10.333Z,1007.8
2019-01-06T09:03:11.700Z,1007.8
2019-01-06T09:04:13.073Z,1007.8
2019-01-06T09:05:14.442Z,1007.7
2019-01-06T09:06:15.821Z,1007.7
2019-01-06T09:07:17.180Z,1007.7
2019-01-06T09:08:18.549Z,1007.8
2019-01-06T09:09:19.920Z,1007.8
2019-01-06T09:10:21.324Z,1007.8
2019-01-06T09:11:22.672Z,1007.8
2019-01-06T09:12:24.064Z,1007.8
2019-01-06T09:13:25.440Z,1007.8
2019-01-06T09:14:26.828Z,1007.9
2019-01-06T09:15:28.193Z,1007.9
2019-01-06T09:16:29.558Z,1007.8
2019-01-06T09:17:30.949Z,1007.9
2019-01-06T09:18:32.311Z,1007.8
2019-01-06T09:19:33.684Z,1007.8
2019-01-06T09:20:35.045Z,1007.8
2019-01-06T09:21:36.409Z,1007.9
2019-01-06T09:22:37.780Z,1007.9
2019-01-06T09:23:39.163Z,1007.9
2019-01-06T09:24:40.523Z,1007.9
2019-01-06T09:25:41.900Z,1007.9
2019-01-06T09:26:43.270Z,1007.9
2019-01-06T09:27:44.635Z,1007.9
2019-01-06T09:28:46.010Z,1007.9
2019-01-06T09:29:47.386Z,1007.9
2019-01-06T09:30:48.752Z,1007.9
2019-01-06T09:31:50.125Z,1008.0
2019-01-06T09:32:51.499Z,1008.0
2019-01-06T09:33:52.855Z,1008.0
2019-01-06T09:34:54.215Z,1008.0
2019-01-06T09:35:55.590Z,1008.0
2019-01-06T09:36:56.957Z,1007.9
2019-01-06T09:37:58.326Z,1008.0
2019-01-06T09:38:59.697Z,1008.0
2019-01-06T09:40:01.066Z,1008.0
2019-01-06T09:41:02.453Z,1008.0
2019-01-06T09:42:03.828Z,1008.0
2019-01-06T09:43:05.189Z,1008.0
2019-01-06T09:44:06.560Z,1008.0
2019-01-06T09:45:07.937Z,1008.0
2019-01-06T09:46:09.302Z,1008.0
2019-01-06T09:47:10.673Z,1008.0
2019-01-06T09:48:12.081Z,1008.0
2019-01-06T09:49:13.440Z,1008.0
2019-01-06T09:50:14.810Z,1008.0
2019-01-06T09:51:16.222Z,1008.0
2019-01-06T09:52:17.601Z,1008.0
2019-01-06T09:53:18.968Z,1008.0
2019-01-06T09:54:20.351Z,1008.0
2019-01-06T09:55:21.724Z,1008.0
2019-01-06T09:56:23.088Z,1008.0
2019-01-06T09:57:24.462Z,1008.0
2019-01-06T09:58:25.824Z,1008.0
2019-01-06T09:59:27.196Z,1008.0
2019-01-06T10:00:28.563Z,1008.0
2019-01-06T10:01:29.928Z,1008.0
2019-01-06T10:02:31.294Z,1008.0
2019-01-06T10:03:32.658Z,1007.9
2019-01-06T10:04:35.122Z,1007.9
2019-01-06T10:05:35.360Z,1007.9
2019-01-06T10:06:36.752Z,1008.0
2019-01-06T10:07:38.114Z,1008.0
2019-01-06T10:08:39.490Z,1007.9
2019-01-06T10:09:40.866Z,1007.9
2019-01-06T10:10:42.232Z,1007.9
2019-01-06T10:11:43.598Z,1007.9
2019-01-06T10:12:44.983Z,1007.9
2019-01-06T10:13:46.361Z,1007.9
2019-01-06T10:14:47.730Z,1008.0
2019-01-06T10:15:49.116Z,1007.9
2019-01-06T10:16:50.491Z,1007.9
2019-01-06T10:17:51.858Z,1007.9
2019-01-06T10:18:53.236Z,1007.9
2019-01-06T10:19:54.591Z,1007.9
2019-01-06T10:20:55.959Z,1007.9
2019-01-06T10:21:57.329Z,1007.9
2019-01-06T10:22:58.697Z,1007.9
2019-01-06T10:24:00.068Z,1008.0
2019-01-06T10:25:01.441Z,1008.0
2019-01-06T10:26:02.863Z,1008.0
2019-01-06T10:27:04.218Z,1007.9
2019-01-06T10:28:05.590Z,1008.0
2019-01-06T10:29:06.956Z,1008.0
2019-01-06T10:30:08.333Z,1007.9
2019-01-06T10:31:09.693Z,1007.9
2019-01-06T10:32:11.055Z,1008.0
2019-01-06T10:33:12.453Z,1008.0
2019-01-06T10:34:13.838Z,1008.0
2019-01-06T10:35:15.199Z,1008.0
2019-01-06T10:36:16.572Z,1008.0
2019-01-06T10:37:17.964Z,1008.0
2019-01-06T10:38:19.325Z,1008.0
2019-01-06T10:39:20.688Z,1008.0
2019-01-06T10:40:22.063Z,1008.0
2019-01-06T10:41:23.422Z,1008.0
2019-01-06T10:42:24.792Z,1007.9
2019-01-06T10:43:26.164Z,1008.0
2019-01-06T10:44:27.538Z,1007.9
2019-01-06T10:45:28.915Z,1007.9
2019-01-06T10:46:30.276Z,1007.9
2019-01-06T10:47:31.649Z,1008.0
2019-01-06T10:48:33.050Z,1007.9
2019-01-06T10:49:34.423Z,1007.9
2019-01-06T10:50:35.794Z,1008.0
2019-01-06T10:51:37.165Z,1008.0
2019-01-06T10:52:38.542Z,1008.0
2019-01-06T10:53:39.922Z,1007.9
2019-01-06T10:54:41.278Z,1007.9
2019-01-06T10:55:42.645Z,1007.9
2019-01-06T10:56:44.021Z,1008.0
2019-01-06T10:57:46.091Z,1007.9
2019-01-06T10:58:47.460Z,1008.0
2019-01-06T10:59:48.846Z,1007.9
2019-01-06T11:00:50.215Z,1007.9
2019-01-06T11:01:51.607Z,1007.9
2019-01-06T11:02:52.990Z,1007.9
2019-01-06T11:03:54.373Z,1008.0
2019-01-06T11:04:55.823Z,1007.9
2019-01-06T11:05:57.073Z,1007.9
2019-01-06T11:06:58.443Z,1007.9
2019-01-06T11:07:59.823Z,1007.9
2019-01-06T11:09:01.179Z,1007.9
2019-01-06T11:10:02.546Z,1007.9
2019-01-06T11:11:03.917Z,1008.0
2019-01-06T11:12:05.300Z,1007.9
2019-01-06T11:13:06.727Z,1007.9
2019-01-06T11:14:08.088Z,1008.0
2019-01-06T11:15:09.452Z,1007.9
2019-01-06T11:16:10.817Z,1007.9
2019-01-06T11:17:12.205Z,1007.9
2019-01-06T11:18:13.582Z,1007.9
2019-01-06T11:19:14.952Z,1007.9
2019-01-06T11:20:16.353Z,1007.9
2019-01-06T11:21:17.728Z,1007.9
2019-01-06T11:22:19.093Z,1007.9
2019-01-06T11:23:20.465Z,1007.9
2019-01-06T11:24:21.824Z,1008.0
2019-01-06T11:25:23.198Z,1007.9
2019-01-06T11:26:24.569Z,1007.9
2019-01-06T11:27:25.978Z,1007.9
2019-01-06T11:28:27.365Z,1007.9
2019-01-06T11:29:28.724Z,1007.9
2019-01-06T11:30:30.092Z,1007.9
2019-01-06T11:31:31.459Z,1007.9
2019-01-06T11:32:32.885Z,1007.9
2019-01-06T11:33:34.249Z,1007.9
2019-01-06T11:34:35.576Z,1007.9
2019-01-06T11:35:36.944Z,1007.9
2019-01-06T11:36:38.315Z,1007.9
2019-01-06T11:37:39.721Z,1007.9
2019-01-06T11:38:41.083Z,1008.0
2019-01-06T11:39:42.453Z,1007.9
2019-01-06T11:40:43.830Z,1007.9
2019-01-06T11:41:45.199Z,1007.9
2019-01-06T11:42:46.573Z,1007.9
2019-01-06T11:43:47.941Z,1007.9
2019-01-06T11:44:49.313Z,1008.0
2019-01-06T11:45:50.678Z,1007.9
2019-01-06T11:46:52.053Z,1007.9
2019-01-06T11:47:53.419Z,1007.9
2019-01-06T11:48:54.796Z,1007.9
2019-01-06T11:49:56.166Z,1007.9
2019-01-06T11:50:57.523Z,1007.9
2019-01-06T11:51:58.915Z,1007.9
2019-01-06T11:53:00.295Z,1007.9
2019-01-06T11:54:01.665Z,1007.9
2019-01-06T11:55:03.036Z,1007.9
2019-01-06T11:56:04.424Z,1007.9
2019-01-06T11:57:05.774Z,1007.9
2019-01-06T11:58:07.147Z,1007.9
2019-01-06T11:59:08.516Z,1007.8
2019-01-06T12:00:09.880Z,1007.9
2019-01-06T12:01:11.263Z,1007.9
2019-01-06T12:02:12.685Z,1007.9
2019-01-06T12:03:14.069Z,1007.9
2019-01-06T12:04:15.429Z,1007.8
2019-01-06T12:05:16.794Z,1007.8
2019-01-06T12:06:18.162Z,1007.8
2019-01-06T12:07:19.539Z,1007.9
2019-01-06T12:08:20.909Z,1007.9
2019-01-06T12:09:22.279Z,1007.9
2019-01-06T12:10:23.660Z,1007.9
2019-01-06T12:11:25.025Z,1007.8
2019-01-06T12:12:26.400Z,1007.8
2019-01-06T12:13:27.769Z,1007.9
2019-01-06T12:14:29.141Z,1007.8
2019-01-06T12:15:30.508Z,1007.9
2019-01-06T12:16:31.874Z,1007.8
2019-01-06T12:17:33.253Z,1007.8
2019-01-06T12:18:34.613Z,1007.8
2019-01-06T12:19:35.977Z,1007.9
2019-01-06T12:20:37.344Z,1007.8
2019-01-06T12:21:38.710Z,1007.8
2019-01-06T12:22:40.102Z,1007.8
2019-01-06T12:23:41.473Z,1007.8
2019-01-06T12:24:42.840Z,1007.8
2019-01-06T12:25:44.223Z,1007.9
2019-01-06T12:26:45.586Z,1007.9
2019-01-06T12:27:46.954Z,1007.9
2019-01-06T12:28:48.326Z,1007.9
2019-01-06T12:29:49.706Z,1007.9
2019-01-06T12:30:51.073Z,1007.9
2019-01-06T12:31:52.448Z,1008.0
2019-01-06T12:32:53.811Z,1008.0
2019-01-06T12:33:55.175Z,1008.0
2019-01-06T12:34:56.548Z,1008.0
2019-01-06T12:35:57.917Z,1008.0
2019-01-06T12:36:59.298Z,1008.0
2019-01-06T12:38:00.670Z,1008.0
2019-01-06T12:39:02.035Z,1008.1
2019-01-06T12:40:03.400Z,1008.1
2019-01-06T12:41:04.766Z,1008.1
2019-01-06T12:42:06.134Z,1008.1
2019-01-06T12:43:07.505Z,1008.1
2019-01-06T12:44:08.872Z,1008.1
2019-01-06T12:45:10.239Z,1008.1
2019-01-06T12:46:11.625Z,1008.1